Time;durP1;ratioP1;P1;durP2;ratioP2;P2;SDS_P1;SDS_P2;PMS_P1;PMS_P2;Temp;Humidity;BMP_temperature;BMP_pressure;BME280_temperature;BME280_humidity;BME280_pressure;Samples;Min_cycle;Max_cycle;Signal;HPM_P1;HPM_P2
2021/04/30 00:00:08;;;;;;;18.70;4.13;;;;;;;;;;5041982;28;20053;-50
2021/04/30 00:02:34;;;;;;;11.32;4.10;;;;;;;;;;5022049;28;20027;-52
2021/04/30 00:05:01;;;;;;;14.30;4.00;;;;;;;;;;5033539;28;20089;-49
2021/04/30 00:07:27;;;;;;;9.52;4.20;;;;;;;;;;5042409;28;20053;-50
2021/04/30 00:09:53;;;;;;;12.05;3.58;;;;;;;;;;5045627;28;20048;-48
2021/04/30 00:12:19;;;;;;;18.83;3.90;;;;;;;;;;5038224;28;20048;-47
2021/04/30 00:14:46;;;;;;;13.38;3.80;;;;;;;;;;5043243;28;20048;-49
2021/04/30 00:17:12;;;;;;;16.33;4.43;;;;;;;;;;5042271;28;20064;-49
2021/04/30 00:19:38;;;;;;;17.83;4.55;;;;;;;;;;5046337;28;20037;-50
2021/04/30 00:22:04;;;;;;;15.15;3.45;;;;;;;;;;5042688;28;20044;-51
2021/04/30 00:24:30;;;;;;;15.73;4.63;;;;;;;;;;5044342;28;20124;-54
2021/04/30 00:26:59;;;;;;;19.08;4.40;;;;;;;;;;5042574;28;20111;-48
2021/04/30 00:29:28;;;;;;;8.38;3.47;;;;;;;;;;5052275;28;20037;-52
2021/04/30 00:31:54;;;;;;;15.18;4.13;;;;;;;;;;5044112;28;20040;-49
2021/04/30 00:34:20;;;;;;;32.13;4.75;;;;;;;;;;5039181;28;20060;-49
2021/04/30 00:36:46;;;;;;;18.40;4.13;;;;;;;;;;5041281;28;20045;-50
2021/04/30 00:39:12;;;;;;;14.32;4.50;;;;;;;;;;5057555;28;20052;-51
2021/04/30 00:41:39;;;;;;;15.90;3.95;;;;;;;;;;5046192;28;20048;-51
2021/04/30 00:44:06;;;;;;;10.65;3.67;;;;;;;;;;5040477;28;20037;-46
2021/04/30 00:46:35;;;;;;;7.78;3.28;;;;;;;;;;5044263;28;20044;-53
2021/04/30 00:49:01;;;;;;;12.38;3.97;;;;;;;;;;5042779;28;20049;-51
2021/04/30 00:51:27;;;;;;;10.68;4.10;;;;;;;;;;5064391;28;20044;-49
2021/04/30 00:53:53;;;;;;;15.45;3.63;;;;;;;;;;5038352;28;20041;-47
2021/04/30 00:56:21;;;;;;;11.85;4.03;;;;;;;;;;5025237;28;20053;-47
2021/04/30 00:58:47;;;;;;;14.20;3.40;;;;;;;;;;5029081;28;20118;-48
2021/04/30 01:01:13;;;;;;;13.60;3.60;;;;;;;;;;5045199;28;20032;-48
2021/04/30 01:03:42;;;;;;;15.02;3.53;;;;;;;;;;5038935;28;20056;-47
2021/04/30 01:06:08;;;;;;;13.20;3.95;;;;;;;;;;5040317;28;20029;-48
2021/04/30 01:08:34;;;;;;;14.02;3.88;;;;;;;;;;5039679;28;20130;-52
2021/04/30 01:11:00;;;;;;;11.95;3.70;;;;;;;;;;5063062;28;20098;-48
2021/04/30 01:13:26;;;;;;;12.32;3.70;;;;;;;;;;5043460;28;20055;-49
2021/04/30 01:15:52;;;;;;;14.77;4.03;;;;;;;;;;5041084;28;20036;-51
2021/04/30 01:18:19;;;;;;;15.32;3.78;;;;;;;;;;5062379;28;20040;-51
2021/04/30 01:20:45;;;;;;;14.73;3.60;;;;;;;;;;5037444;28;20048;-49
2021/04/30 01:23:11;;;;;;;10.05;4.30;;;;;;;;;;5042962;28;20120;-50
2021/04/30 01:25:38;;;;;;;16.08;3.85;;;;;;;;;;5038645;28;20041;-53
2021/04/30 01:28:04;;;;;;;9.50;3.67;;;;;;;;;;5023779;28;20041;-51
2021/04/30 01:30:31;;;;;;;13.95;4.22;;;;;;;;;;5033025;28;20072;-52
2021/04/30 01:32:58;;;;;;;14.30;3.78;;;;;;;;;;5045198;28;20068;-49
2021/04/30 01:35:25;;;;;;;9.20;3.63;;;;;;;;;;5042542;28;20089;-48
2021/04/30 01:37:53;;;;;;;10.98;3.70;;;;;;;;;;5062325;28;20036;-48
2021/04/30 01:40:23;;;;;;;11.95;3.30;;;;;;;;;;5058116;28;20133;-49
2021/04/30 01:42:57;;;;;;;16.60;3.47;;;;;;;;;;5045008;28;20041;-46
2021/04/30 01:45:23;;;;;;;13.13;3.35;;;;;;;;;;5059116;28;20048;-47
2021/04/30 01:47:49;;;;;;;15.00;3.83;;;;;;;;;;5038499;28;20040;-45
2021/04/30 01:50:15;;;;;;;8.68;3.60;;;;;;;;;;5040895;28;20052;-46
2021/04/30 01:52:41;;;;;;;14.25;3.60;;;;;;;;;;5044070;28;20036;-47
2021/04/30 01:55:07;;;;;;;13.40;3.65;;;;;;;;;;5042593;28;20037;-50
2021/04/30 01:57:36;;;;;;;15.15;3.85;;;;;;;;;;5041028;28;20052;-49
2021/04/30 02:00:02;;;;;;;12.88;3.78;;;;;;;;;;5040662;28;20405;-48
2021/04/30 02:02:43;;;;;;;12.38;3.78;;;;;;;;;;5039028;28;20134;-47
2021/04/30 02:05:09;;;;;;;14.98;4.10;;;;;;;;;;5041351;28;20121;-47
2021/04/30 02:07:36;;;;;;;9.45;3.60;;;;;;;;;;5039007;28;20037;-47
2021/04/30 02:10:03;;;;;;;15.55;3.75;;;;;;;;;;5040252;28;20056;-48
2021/04/30 02:12:29;;;;;;;15.80;4.25;;;;;;;;;;5037563;28;20130;-47
2021/04/30 02:14:56;;;;;;;16.08;3.85;;;;;;;;;;5041768;28;20037;-47
2021/04/30 02:17:22;;;;;;;10.90;4.00;;;;;;;;;;5049737;28;20044;-50
2021/04/30 02:19:48;;;;;;;12.45;4.10;;;;;;;;;;5044735;28;20073;-50
2021/04/30 02:22:14;;;;;;;13.90;3.70;;;;;;;;;;5037442;28;20118;-48
2021/04/30 02:24:40;;;;;;;16.80;3.72;;;;;;;;;;5041865;28;20029;-48
2021/04/30 02:27:06;;;;;;;9.73;3.42;;;;;;;;;;5059547;28;20040;-48
2021/04/30 02:29:33;;;;;;;14.23;3.95;;;;;;;;;;5043369;28;20170;-46
2021/04/30 02:32:00;;;;;;;11.52;3.38;;;;;;;;;;5040681;28;20063;-48
2021/04/30 02:34:26;;;;;;;12.70;4.38;;;;;;;;;;5044361;28;20041;-47
2021/04/30 02:36:52;;;;;;;13.00;4.30;;;;;;;;;;5038948;28;20133;-50
2021/04/30 02:39:18;;;;;;;17.52;4.13;;;;;;;;;;5044070;28;20110;-46
2021/04/30 02:41:44;;;;;;;10.77;3.70;;;;;;;;;;5043594;28;20384;-47
2021/04/30 02:44:09;;;;;;;12.35;4.20;;;;;;;;;;5037780;28;20040;-49
2021/04/30 02:46:36;;;;;;;20.08;4.07;;;;;;;;;;5041162;28;20151;-49
2021/04/30 02:49:05;;;;;;;11.57;3.90;;;;;;;;;;5052198;28;20041;-51
2021/04/30 02:51:32;;;;;;;18.98;3.60;;;;;;;;;;5042295;28;20037;-49
2021/04/30 02:53:58;;;;;;;13.20;3.92;;;;;;;;;;5039053;28;20045;-52
2021/04/30 02:56:24;;;;;;;11.45;3.75;;;;;;;;;;5044733;28;20118;-49
2021/04/30 02:58:55;;;;;;;14.07;4.35;;;;;;;;;;5035350;28;20413;-49
2021/04/30 03:01:21;;;;;;;12.20;3.65;;;;;;;;;;5039031;28;20068;-48
2021/04/30 03:03:47;;;;;;;14.02;4.13;;;;;;;;;;5038164;28;20116;-48
2021/04/30 03:06:17;;;;;;;12.65;3.85;;;;;;;;;;5042667;28;20045;-47
2021/04/30 03:08:43;;;;;;;12.45;3.42;;;;;;;;;;5035299;28;20053;-47
2021/04/30 03:11:09;;;;;;;12.18;3.78;;;;;;;;;;5040738;28;20041;-47
2021/04/30 03:13:35;;;;;;;12.88;3.55;;;;;;;;;;5039657;28;20549;-46
2021/04/30 03:16:01;;;;;;;8.07;3.42;;;;;;;;;;5043851;28;20065;-45
2021/04/30 03:18:27;;;;;;;13.00;3.65;;;;;;;;;;5041268;28;20029;-48
2021/04/30 03:20:55;;;;;;;10.50;3.30;;;;;;;;;;5042802;28;20045;-47
2021/04/30 03:23:22;;;;;;;12.85;3.75;;;;;;;;;;5046196;28;20114;-52
2021/04/30 03:25:48;;;;;;;14.30;3.60;;;;;;;;;;5036689;28;20033;-51
2021/04/30 03:28:14;;;;;;;13.88;3.95;;;;;;;;;;5040260;28;20582;-49
2021/04/30 03:30:40;;;;;;;15.35;4.25;;;;;;;;;;5042506;28;20075;-52
2021/04/30 03:33:06;;;;;;;12.85;3.42;;;;;;;;;;5046922;28;20037;-48
2021/04/30 03:35:32;;;;;;;13.82;3.72;;;;;;;;;;5042506;28;20077;-52
2021/04/30 03:38:00;;;;;;;15.05;4.57;;;;;;;;;;5046652;28;20052;-51
2021/04/30 03:40:27;;;;;;;17.23;4.18;;;;;;;;;;5038127;28;20041;-54
2021/04/30 03:42:53;;;;;;;14.38;3.60;;;;;;;;;;5026610;28;20060;-50
2021/04/30 03:45:19;;;;;;;16.75;4.18;;;;;;;;;;5030852;28;20089;-53
2021/04/30 03:47:45;;;;;;;13.40;3.92;;;;;;;;;;5065333;28;20032;-52
2021/04/30 03:50:11;;;;;;;14.43;3.88;;;;;;;;;;5043174;28;20044;-49
2021/04/30 03:52:37;;;;;;;11.65;4.22;;;;;;;;;;5045262;28;20055;-46
2021/04/30 03:55:04;;;;;;;13.52;3.30;;;;;;;;;;5041062;28;20370;-49
2021/04/30 03:57:31;;;;;;;16.77;3.72;;;;;;;;;;5046242;28;20048;-53
2021/04/30 03:59:57;;;;;;;15.43;3.83;;;;;;;;;;5045113;28;20081;-49
2021/04/30 04:02:23;;;;;;;17.15;3.72;;;;;;;;;;5039498;28;20045;-50
2021/04/30 04:04:49;;;;;;;16.58;3.50;;;;;;;;;;5042111;28;20033;-51
2021/04/30 04:07:15;;;;;;;13.75;3.90;;;;;;;;;;5058665;28;20040;-50
2021/04/30 04:09:41;;;;;;;13.95;3.67;;;;;;;;;;5046030;28;20033;-49
2021/04/30 04:12:08;;;;;;;11.32;3.50;;;;;;;;;;5059492;28;20052;-51
2021/04/30 04:14:35;;;;;;;14.15;4.15;;;;;;;;;;5062323;28;20344;-48
2021/04/30 04:17:01;;;;;;;13.68;3.97;;;;;;;;;;5039381;28;20052;-49
2021/04/30 04:19:27;;;;;;;13.40;3.30;;;;;;;;;;5042991;28;20061;-51
2021/04/30 04:21:53;;;;;;;15.95;3.85;;;;;;;;;;5039505;28;20056;-50
2021/04/30 04:24:19;;;;;;;12.60;3.63;;;;;;;;;;5041555;28;20052;-52
2021/04/30 04:26:45;;;;;;;14.43;3.97;;;;;;;;;;5042518;28;20043;-47
2021/04/30 04:29:11;;;;;;;8.85;3.60;;;;;;;;;;5062805;28;20037;-46
2021/04/30 04:31:38;;;;;;;15.98;3.90;;;;;;;;;;5041253;28;20592;-47
2021/04/30 04:34:04;;;;;;;10.80;3.90;;;;;;;;;;5044530;28;20090;-48
2021/04/30 04:36:32;;;;;;;10.45;3.47;;;;;;;;;;5042471;28;20144;-49
2021/04/30 04:38:58;;;;;;;14.97;3.97;;;;;;;;;;5046116;28;20146;-46
2021/04/30 04:41:24;;;;;;;9.32;3.67;;;;;;;;;;5063014;28;20045;-48
2021/04/30 04:43:50;;;;;;;16.75;3.38;;;;;;;;;;5041671;28;20056;-48
2021/04/30 04:46:16;;;;;;;16.15;3.83;;;;;;;;;;5046067;28;20047;-48
2021/04/30 04:48:43;;;;;;;20.85;3.70;;;;;;;;;;5042480;28;20040;-45
2021/04/30 04:51:09;;;;;;;12.75;4.18;;;;;;;;;;5046043;28;20048;-49
2021/04/30 04:53:35;;;;;;;17.20;4.97;;;;;;;;;;5062344;28;20039;-49
2021/04/30 04:56:01;;;;;;;10.73;3.78;;;;;;;;;;5045126;28;20052;-50
2021/04/30 04:58:27;;;;;;;8.80;3.75;;;;;;;;;;5042190;28;20060;-51
2021/04/30 05:00:53;;;;;;;16.35;3.70;;;;;;;;;;5039918;28;20137;-50
2021/04/30 05:03:19;;;;;;;18.42;4.22;;;;;;;;;;5039175;28;20102;-53
2021/04/30 05:05:46;;;;;;;17.48;4.13;;;;;;;;;;5042755;28;20052;-51
2021/04/30 05:08:12;;;;;;;16.45;4.28;;;;;;;;;;5040134;28;20045;-50
2021/04/30 05:10:39;;;;;;;16.00;4.70;;;;;;;;;;5057341;28;20048;-51
2021/04/30 05:13:05;;;;;;;18.98;4.55;;;;;;;;;;5040084;28;20391;-52
2021/04/30 05:15:31;;;;;;;19.17;4.88;;;;;;;;;;5040916;28;20052;-51
2021/04/30 05:17:58;;;;;;;11.30;4.10;;;;;;;;;;5042211;28;20093;-50
2021/04/30 05:20:24;;;;;;;15.32;4.18;;;;;;;;;;5057135;28;20045;-49
2021/04/30 05:22:50;;;;;;;17.33;4.32;;;;;;;;;;5040898;28;20064;-53
2021/04/30 05:25:16;;;;;;;11.88;4.47;;;;;;;;;;5040281;28;20050;-51
2021/04/30 05:27:46;;;;;;;22.13;4.80;;;;;;;;;;5040402;28;20069;-48
2021/04/30 05:30:12;;;;;;;16.70;4.53;;;;;;;;;;5058837;28;20052;-54
2021/04/30 05:32:39;;;;;;;23.20;6.13;;;;;;;;;;5043955;28;20051;-49
2021/04/30 05:35:05;;;;;;;23.23;7.20;;;;;;;;;;5039142;28;20044;-50
2021/04/30 05:37:32;;;;;;;31.20;7.32;;;;;;;;;;5042757;28;20036;-47
2021/04/30 05:39:59;;;;;;;28.52;6.40;;;;;;;;;;5040278;28;20159;-52
2021/04/30 05:42:25;;;;;;;22.58;5.45;;;;;;;;;;5062753;28;20048;-52
2021/04/30 05:44:52;;;;;;;23.20;5.68;;;;;;;;;;5035356;28;20041;-51
2021/04/30 05:47:19;;;;;;;25.55;5.80;;;;;;;;;;5043507;28;20056;-51
2021/04/30 05:49:45;;;;;;;24.02;6.03;;;;;;;;;;5037028;28;20045;-46
2021/04/30 05:52:11;;;;;;;19.52;5.78;;;;;;;;;;5039695;28;20053;-51
2021/04/30 05:54:37;;;;;;;19.48;5.72;;;;;;;;;;5051998;28;20040;-53
2021/04/30 05:57:04;;;;;;;28.92;8.05;;;;;;;;;;5043486;28;20029;-53
2021/04/30 05:59:33;;;;;;;23.00;7.32;;;;;;;;;;5044435;28;20048;-52
2021/04/30 06:01:59;;;;;;;21.63;6.75;;;;;;;;;;5041127;28;20044;-50
2021/04/30 06:04:26;;;;;;;21.80;6.22;;;;;;;;;;5045223;28;20043;-48
2021/04/30 06:06:52;;;;;;;21.10;6.03;;;;;;;;;;5036058;28;20045;-48
2021/04/30 06:09:19;;;;;;;23.63;5.53;;;;;;;;;;5041358;28;20061;-48
2021/04/30 06:11:44;;;;;;;18.13;5.72;;;;;;;;;;5038073;28;20056;-48
2021/04/30 06:14:12;;;;;;;14.98;6.15;;;;;;;;;;5040905;28;20053;-47
2021/04/30 06:16:38;;;;;;;24.08;6.63;;;;;;;;;;5039191;28;20262;-47
2021/04/30 06:19:04;;;;;;;18.90;5.85;;;;;;;;;;5041635;28;20048;-47
2021/04/30 06:21:31;;;;;;;18.92;6.03;;;;;;;;;;5039511;28;20043;-53
2021/04/30 06:23:59;;;;;;;18.60;6.50;;;;;;;;;;5041371;28;20033;-49
2021/04/30 06:26:25;;;;;;;;;;;;;;;;;;5037047;28;20051;-49
2021/04/30 06:28:51;;;;;;;14.57;6.05;;;;;;;;;;5039145;28;19917;-52
2021/04/30 06:31:18;;;;;;;20.83;7.78;;;;;;;;;;5039749;28;20051;-47
2021/04/30 06:33:45;;;;;;;24.50;7.47;;;;;;;;;;5044675;28;20085;-54
2021/04/30 06:36:10;;;;;;;22.10;7.40;;;;;;;;;;5040319;28;20041;-51
2021/04/30 06:38:37;;;;;;;16.95;6.95;;;;;;;;;;5060226;28;20054;-48
2021/04/30 06:41:03;;;;;;;24.00;6.97;;;;;;;;;;5043041;28;20117;-53
2021/04/30 06:43:31;;;;;;;18.02;7.28;;;;;;;;;;5040501;28;20094;-50
2021/04/30 06:45:58;;;;;;;18.05;7.22;;;;;;;;;;5036893;28;20041;-52
2021/04/30 06:48:24;;;;;;;24.75;7.65;;;;;;;;;;5038729;28;20122;-51
2021/04/30 06:50:52;;;;;;;25.77;7.53;;;;;;;;;;5042220;28;20040;-50
2021/04/30 06:53:18;;;;;;;16.98;6.63;;;;;;;;;;5039212;28;20041;-49
2021/04/30 06:55:44;;;;;;;23.65;7.72;;;;;;;;;;5042406;28;20055;-51
2021/04/30 06:58:10;;;;;;;19.73;7.50;;;;;;;;;;5057041;28;20044;-50
2021/04/30 07:00:36;;;;;;;25.75;7.75;;;;;;;;;;5042405;28;20052;-53
2021/04/30 07:03:02;;;;;;;19.33;6.75;;;;;;;;;;5056468;28;20044;-53
2021/04/30 07:05:29;;;;;;;19.80;7.65;;;;;;;;;;5046257;28;20538;-52
2021/04/30 07:07:57;;;;;;;24.58;7.75;;;;;;;;;;5060214;28;20041;-49
2021/04/30 07:10:26;;;;;;;20.63;8.15;;;;;;;;;;5045763;28;20041;-56
2021/04/30 07:12:52;;;;;;;26.95;10.32;;;;;;;;;;5043079;28;20069;-51
2021/04/30 07:15:18;;;;;;;23.45;7.78;;;;;;;;;;5047356;28;20041;-53
2021/04/30 07:17:44;;;;;;;22.50;8.68;;;;;;;;;;5044767;28;20040;-49
2021/04/30 07:20:11;;;;;;;21.98;8.27;;;;;;;;;;5045654;28;20045;-50
2021/04/30 07:22:38;;;;;;;20.10;8.27;;;;;;;;;;5045933;28;20029;-52
2021/04/30 07:25:04;;;;;;;18.33;7.82;;;;;;;;;;5043499;28;20047;-52
2021/04/30 07:27:30;;;;;;;25.15;9.82;;;;;;;;;;5046992;28;20041;-51
2021/04/30 07:29:56;;;;;;;20.15;8.73;;;;;;;;;;5039132;28;20090;-48
2021/04/30 07:32:22;;;;;;;19.98;8.27;;;;;;;;;;5026689;28;20558;-51
2021/04/30 07:34:48;;;;;;;23.08;9.45;;;;;;;;;;5034239;28;20052;-55
2021/04/30 07:37:15;;;;;;;22.40;9.48;;;;;;;;;;5045799;28;20037;-54
2021/04/30 07:39:43;;;;;;;29.23;9.75;;;;;;;;;;5039533;28;20045;-53
2021/04/30 07:42:10;;;;;;;26.13;9.27;;;;;;;;;;5041731;28;20053;-52
2021/04/30 07:44:36;;;;;;;18.52;7.43;;;;;;;;;;5043694;28;20463;-49
2021/04/30 07:47:02;;;;;;;23.42;9.52;;;;;;;;;;5043667;28;20060;-51
2021/04/30 07:49:28;;;;;;;20.33;8.70;;;;;;;;;;5026810;28;20045;-48
2021/04/30 07:51:54;;;;;;;21.40;9.60;;;;;;;;;;5044219;28;20029;-55
2021/04/30 07:54:20;;;;;;;21.58;9.10;;;;;;;;;;5041754;28;20097;-52
2021/04/30 07:56:47;;;;;;;22.73;9.25;;;;;;;;;;5046257;28;20064;-52
2021/04/30 07:59:14;;;;;;;17.73;8.48;;;;;;;;;;5062852;28;20093;-53
2021/04/30 08:01:43;;;;;;;21.98;10.02;;;;;;;;;;5039106;28;20045;-52
2021/04/30 08:04:09;;;;;;;;;;;;;;;;;;5045334;28;20041;-51
2021/04/30 08:06:35;;;;;;;18.05;7.70;;;;;;;;;;5040879;28;19935;-51
2021/04/30 08:09:01;;;;;;;19.08;8.00;;;;;;;;;;5045969;28;20036;-56
2021/04/30 08:11:27;;;;;;;17.23;8.75;;;;;;;;;;5060363;28;20048;-56
2021/04/30 08:13:56;;;;;;;21.50;9.07;;;;;;;;;;5045606;28;20048;-56
2021/04/30 08:16:24;;;;;;;17.92;8.75;;;;;;;;;;5055031;28;20048;-54
2021/04/30 08:18:50;;;;;;;21.83;8.43;;;;;;;;;;5041660;28;20034;-54
2021/04/30 08:21:16;;;;;;;21.90;8.13;;;;;;;;;;5039343;28;20151;-49
2021/04/30 08:23:42;;;;;;;24.80;9.50;;;;;;;;;;5042592;28;20117;-54
2021/04/30 08:26:10;;;;;;;18.05;8.98;;;;;;;;;;5040180;28;20052;-52
2021/04/30 08:28:36;;;;;;;18.63;8.00;;;;;;;;;;5061824;28;20109;-55
2021/04/30 08:31:03;;;;;;;22.05;8.18;;;;;;;;;;5059733;28;20029;-57
2021/04/30 08:33:29;;;;;;;17.88;7.50;;;;;;;;;;5062966;28;20033;-52
2021/04/30 08:35:55;;;;;;;23.05;9.10;;;;;;;;;;5043171;28;20119;-52
2021/04/30 08:38:21;;;;;;;23.25;8.32;;;;;;;;;;5044280;28;20091;-53
2021/04/30 08:40:47;;;;;;;24.48;9.73;;;;;;;;;;5046480;28;20049;-51
2021/04/30 08:43:16;;;;;;;23.95;9.40;;;;;;;;;;5041796;28;20133;-52
2021/04/30 08:45:42;;;;;;;20.20;8.90;;;;;;;;;;5041957;28;20033;-51
2021/04/30 08:48:10;;;;;;;21.67;8.85;;;;;;;;;;5038982;28;20041;-55
2021/04/30 08:50:36;;;;;;;20.45;8.77;;;;;;;;;;5040954;28;20040;-54
2021/04/30 08:53:03;;;;;;;23.08;9.55;;;;;;;;;;5041791;28;20138;-56
2021/04/30 08:55:30;;;;;;;19.98;9.93;;;;;;;;;;5042962;28;20049;-54
2021/04/30 08:57:56;;;;;;;23.20;9.50;;;;;;;;;;5033800;28;20114;-54
2021/04/30 09:00:24;;;;;;;26.73;9.88;;;;;;;;;;5044857;28;20033;-55
2021/04/30 09:02:50;;;;;;;24.23;10.25;;;;;;;;;;5041049;28;20205;-51
2021/04/30 09:05:22;;;;;;;26.90;9.77;;;;;;;;;;5045282;28;20041;-53
2021/04/30 09:07:49;;;;;;;22.33;9.75;;;;;;;;;;5041099;28;20037;-54
2021/04/30 09:10:17;;;;;;;26.10;10.52;;;;;;;;;;5045536;28;20048;-51
2021/04/30 09:12:48;;;;;;;21.33;10.45;;;;;;;;;;5060228;28;20300;-55
2021/04/30 09:15:18;;;;;;;25.23;10.90;;;;;;;;;;5044224;28;20056;-56
2021/04/30 09:17:45;;;;;;;22.17;9.32;;;;;;;;;;5042794;28;20111;-56
2021/04/30 09:20:12;;;;;;;20.45;9.57;;;;;;;;;;5063297;28;20072;-57
2021/04/30 09:22:40;;;;;;;18.42;9.23;;;;;;;;;;5042527;28;20029;-54
2021/04/30 09:25:07;;;;;;;20.73;9.38;;;;;;;;;;5028470;28;20053;-49
2021/04/30 09:27:35;;;;;;;23.42;9.82;;;;;;;;;;5062013;28;20048;-53
2021/04/30 09:30:28;;;;;;;21.42;8.82;;;;;;;;;;5041661;28;20056;-54
2021/04/30 09:33:01;;;;;;;23.13;10.27;;;;;;;;;;5011659;28;20049;-51
2021/04/30 09:35:27;;;;;;;20.83;10.18;;;;;;;;;;5034179;28;21052;-55
2021/04/30 09:37:55;;;;;;;22.17;10.13;;;;;;;;;;5045616;28;20063;-55
2021/04/30 09:40:25;;;;;;;24.95;9.70;;;;;;;;;;5038758;28;20053;-53
2021/04/30 09:43:01;;;;;;;20.00;9.35;;;;;;;;;;5042768;28;20045;-56
2021/04/30 09:45:27;;;;;;;21.80;9.52;;;;;;;;;;5036913;28;20049;-53
2021/04/30 09:47:58;;;;;;;23.38;10.18;;;;;;;;;;5040406;28;20041;-53
2021/04/30 09:50:24;;;;;;;20.42;10.73;;;;;;;;;;5054086;28;20051;-57
2021/04/30 09:52:53;;;;;;;23.95;11.30;;;;;;;;;;5044504;28;20048;-56
2021/04/30 09:55:19;;;;;;;21.60;10.38;;;;;;;;;;5057197;28;20057;-53
2021/04/30 09:57:48;;;;;;;26.15;10.90;;;;;;;;;;5044790;28;20044;-53
2021/04/30 10:00:15;;;;;;;21.50;10.25;;;;;;;;;;5035498;28;20068;-49
2021/04/30 10:02:42;;;;;;;23.40;9.73;;;;;;;;;;5040989;28;20037;-53
2021/04/30 10:05:09;;;;;;;21.58;9.80;;;;;;;;;;5046345;28;20048;-56
2021/04/30 10:07:38;;;;;;;23.05;9.20;;;;;;;;;;5044263;28;20037;-55
2021/04/30 10:10:07;;;;;;;19.90;9.48;;;;;;;;;;5037161;28;20043;-52
2021/04/30 10:12:33;;;;;;;;;;;;;;;;;;5041930;28;20030;-54
2021/04/30 10:14:58;;;;;;;16.10;7.28;;;;;;;;;;5041140;28;19936;-53
2021/04/30 10:17:25;;;;;;;15.68;7.95;;;;;;;;;;5044658;28;20110;-48
2021/04/30 10:19:51;;;;;;;17.65;8.15;;;;;;;;;;5041267;28;20101;-52
2021/04/30 10:22:20;;;;;;;19.95;8.77;;;;;;;;;;5024761;28;20040;-52
2021/04/30 10:24:48;;;;;;;22.23;8.77;;;;;;;;;;5025249;28;20053;-54
2021/04/30 10:27:16;;;;;;;18.15;9.57;;;;;;;;;;5041043;28;20040;-51
2021/04/30 10:29:43;;;;;;;18.15;8.43;;;;;;;;;;5043508;28;20075;-50
2021/04/30 10:32:10;;;;;;;15.40;8.20;;;;;;;;;;5057586;28;20040;-55
2021/04/30 10:34:39;;;;;;;20.67;8.23;;;;;;;;;;5059461;28;20041;-53
2021/04/30 10:37:05;;;;;;;;;;;;;;;;;;5041065;28;20033;-54
2021/04/30 10:39:32;;;;;;;17.17;6.82;;;;;;;;;;5060495;28;19957;-58
2021/04/30 10:42:07;;;;;;;17.30;8.75;;;;;;;;;;5064701;28;20037;-53
2021/04/30 10:44:34;;;;;;;16.23;7.78;;;;;;;;;;5043811;28;20037;-55
2021/04/30 10:47:27;;;;;;;18.17;8.57;;;;;;;;;;5041422;28;20063;-52
2021/04/30 10:50:13;;;;;;;15.90;8.10;;;;;;;;;;5070566;28;20040;-54
2021/04/30 10:52:39;;;;;;;18.88;9.15;;;;;;;;;;5037226;28;20049;-55
2021/04/30 10:55:06;;;;;;;21.15;8.75;;;;;;;;;;5042754;28;20043;-55
2021/04/30 10:57:51;;;;;;;17.52;8.73;;;;;;;;;;5058444;28;20037;-54
2021/04/30 11:00:19;;;;;;;19.05;8.40;;;;;;;;;;5047058;28;20400;-53
2021/04/30 11:02:45;;;;;;;17.42;7.10;;;;;;;;;;5031108;28;20041;-56
2021/04/30 11:05:13;;;;;;;16.20;7.78;;;;;;;;;;5043000;28;20048;-54
2021/04/30 11:07:41;;;;;;;21.27;8.48;;;;;;;;;;5059004;28;20055;-52
2021/04/30 11:10:26;;;;;;;16.40;7.20;;;;;;;;;;5043394;28;20041;-55
2021/04/30 11:12:56;;;;;;;18.27;8.00;;;;;;;;;;5038914;28;20041;-54
2021/04/30 11:15:23;;;;;;;14.77;7.53;;;;;;;;;;5039615;28;20043;-57
2021/04/30 11:17:52;;;;;;;15.13;8.18;;;;;;;;;;5035433;28;20052;-56
2021/04/30 11:20:19;;;;;;;15.85;7.55;;;;;;;;;;5038918;28;20048;-55
2021/04/30 11:23:04;;;;;;;16.48;7.95;;;;;;;;;;5035868;28;20052;-55
2021/04/30 11:25:31;;;;;;;17.40;8.30;;;;;;;;;;5043188;28;20051;-56
2021/04/30 11:27:58;;;;;;;16.33;8.10;;;;;;;;;;5035258;28;20061;-57
2021/04/30 11:30:26;;;;;;;20.50;7.68;;;;;;;;;;5040671;28;20041;-58
2021/04/30 11:32:56;;;;;;;14.73;7.78;;;;;;;;;;5038719;28;20151;-57
2021/04/30 11:35:22;;;;;;;17.85;7.93;;;;;;;;;;5042976;28;20033;-57
2021/04/30 11:37:49;;;;;;;14.95;6.63;;;;;;;;;;5060320;28;20041;-54
2021/04/30 11:40:15;;;;;;;13.68;6.72;;;;;;;;;;5036768;28;20037;-53
2021/04/30 11:42:42;;;;;;;13.93;6.78;;;;;;;;;;5023261;28;20045;-51
2021/04/30 11:45:08;;;;;;;13.90;6.75;;;;;;;;;;5062628;28;20055;-52
2021/04/30 11:47:36;;;;;;;12.50;5.63;;;;;;;;;;5039891;28;20041;-53
2021/04/30 11:50:03;;;;;;;12.07;5.28;;;;;;;;;;5053315;28;20040;-52
2021/04/30 11:52:30;;;;;;;10.93;4.65;;;;;;;;;;5044602;28;20040;-53
2021/04/30 11:55:00;;;;;;;11.18;4.72;;;;;;;;;;5038469;28;20045;-52
2021/04/30 11:57:26;;;;;;;12.00;4.80;;;;;;;;;;5042140;28;20041;-52
2021/04/30 11:59:53;;;;;;;11.95;5.75;;;;;;;;;;5043327;28;20091;-55
2021/04/30 12:02:19;;;;;;;10.52;4.53;;;;;;;;;;5038783;28;20064;-53
2021/04/30 12:04:47;;;;;;;14.88;5.50;;;;;;;;;;5032938;28;20046;-50
2021/04/30 12:07:14;;;;;;;10.00;5.05;;;;;;;;;;5046683;28;20033;-55
2021/04/30 12:09:40;;;;;;;12.55;6.13;;;;;;;;;;5036781;28;20073;-53
2021/04/30 12:12:13;;;;;;;15.32;5.90;;;;;;;;;;5025981;28;20052;-58
2021/04/30 12:14:43;;;;;;;11.93;6.05;;;;;;;;;;5019921;28;20061;-52
2021/04/30 12:17:19;;;;;;;11.45;5.65;;;;;;;;;;5021161;28;20401;-52
2021/04/30 12:19:53;;;;;;;10.93;5.55;;;;;;;;;;5004785;28;20037;-52
2021/04/30 12:22:19;;;;;;;12.52;5.68;;;;;;;;;;5045383;28;20050;-51
2021/04/30 12:24:45;;;;;;;9.25;4.80;;;;;;;;;;5040913;28;20041;-57
2021/04/30 12:27:23;;;;;;;10.07;4.75;;;;;;;;;;5034182;28;20123;-59
2021/04/30 12:29:49;;;;;;;11.10;5.25;;;;;;;;;;5043276;28;20045;-55
2021/04/30 12:32:22;;;;;;;12.23;6.32;;;;;;;;;;5021551;28;20045;-57
2021/04/30 12:34:48;;;;;;;14.95;6.25;;;;;;;;;;5024563;28;20052;-56
2021/04/30 12:37:15;;;;;;;11.57;5.93;;;;;;;;;;5020397;28;20097;-51
2021/04/30 12:39:41;;;;;;;15.10;6.20;;;;;;;;;;5025845;28;20085;-54
2021/04/30 12:42:07;;;;;;;10.95;5.22;;;;;;;;;;5022502;28;20037;-55
2021/04/30 12:44:33;;;;;;;10.15;5.75;;;;;;;;;;5035324;28;20130;-57
2021/04/30 12:47:03;;;;;;;13.38;6.72;;;;;;;;;;5039687;28;20033;-54
2021/04/30 12:49:32;;;;;;;12.55;5.88;;;;;;;;;;5041319;28;20060;-56
2021/04/30 12:51:58;;;;;;;13.02;6.53;;;;;;;;;;5034226;28;20069;-51
2021/04/30 12:54:28;;;;;;;11.88;6.30;;;;;;;;;;5034058;28;20049;-52
2021/04/30 12:56:54;;;;;;;13.63;6.72;;;;;;;;;;5013625;28;20050;-54
2021/04/30 12:59:21;;;;;;;11.98;5.28;;;;;;;;;;5029106;28;20060;-58
2021/04/30 13:01:48;;;;;;;10.90;6.15;;;;;;;;;;5019469;28;20049;-53
2021/04/30 13:04:15;;;;;;;12.30;6.28;;;;;;;;;;5042840;28;20052;-50
2021/04/30 13:06:42;;;;;;;13.55;6.53;;;;;;;;;;5022091;28;20048;-56
2021/04/30 13:09:08;;;;;;;13.00;6.72;;;;;;;;;;5041385;28;20037;-57
2021/04/30 13:11:35;;;;;;;11.55;5.97;;;;;;;;;;5039226;28;20045;-55
2021/04/30 13:14:02;;;;;;;12.48;6.15;;;;;;;;;;5021414;28;20044;-56
2021/04/30 13:16:41;;;;;;;10.85;5.45;;;;;;;;;;5041758;28;20030;-57
2021/04/30 13:19:06;;;;;;;;;;;;;;;;;;5017761;28;20042;-57
2021/04/30 13:21:33;;;;;;;11.25;5.70;;;;;;;;;;5025529;28;19935;-56
2021/04/30 13:24:09;;;;;;;12.88;6.32;;;;;;;;;;5037989;28;20037;-58
2021/04/30 13:26:40;;;;;;;11.43;6.05;;;;;;;;;;5025238;28;20096;-55
2021/04/30 13:29:10;;;;;;;11.80;5.90;;;;;;;;;;5035217;28;20114;-55
2021/04/30 13:31:37;;;;;;;10.82;5.68;;;;;;;;;;5041331;28;20049;-54
2021/04/30 13:34:06;;;;;;;10.10;5.68;;;;;;;;;;5024322;28;20037;-56
2021/04/30 13:36:33;;;;;;;10.85;5.65;;;;;;;;;;5020841;28;20046;-57
2021/04/30 13:39:00;;;;;;;10.85;5.90;;;;;;;;;;5021187;28;20030;-55
2021/04/30 13:41:36;;;;;;;12.55;5.75;;;;;;;;;;5043073;28;20057;-55
2021/04/30 13:44:20;;;;;;;10.15;5.40;;;;;;;;;;5022118;28;20044;-58
2021/04/30 13:46:50;;;;;;;12.98;5.68;;;;;;;;;;5029943;28;20057;-51
2021/04/30 13:49:17;;;;;;;10.18;5.20;;;;;;;;;;5038190;28;20049;-50
2021/04/30 13:51:43;;;;;;;10.60;5.00;;;;;;;;;;5042620;28;20122;-57
2021/04/30 13:54:09;;;;;;;11.25;4.60;;;;;;;;;;5038706;28;20084;-54
2021/04/30 13:56:35;;;;;;;10.45;4.80;;;;;;;;;;5042462;28;20052;-57
2021/04/30 13:59:04;;;;;;;10.10;4.95;;;;;;;;;;5037541;28;20052;-54
2021/04/30 14:01:32;;;;;;;9.93;5.63;;;;;;;;;;5041276;28;20069;-56
2021/04/30 14:03:59;;;;;;;12.75;5.80;;;;;;;;;;5038698;28;20143;-54
2021/04/30 14:06:27;;;;;;;11.15;5.10;;;;;;;;;;5034906;28;20044;-56
2021/04/30 14:08:53;;;;;;;12.10;5.80;;;;;;;;;;5034792;28;20044;-58
2021/04/30 14:11:22;;;;;;;10.60;5.10;;;;;;;;;;5029113;28;20052;-52
2021/04/30 14:13:48;;;;;;;11.45;5.78;;;;;;;;;;5023830;28;20119;-53
2021/04/30 14:16:14;;;;;;;11.13;6.55;;;;;;;;;;5015015;28;20033;-57
2021/04/30 14:18:41;;;;;;;13.73;6.53;;;;;;;;;;5040719;28;20059;-57
2021/04/30 14:21:07;;;;;;;11.68;5.90;;;;;;;;;;5037702;28;20092;-53
2021/04/30 14:23:35;;;;;;;11.32;6.20;;;;;;;;;;5023198;28;20045;-55
2021/04/30 14:26:03;;;;;;;16.20;7.40;;;;;;;;;;5030053;28;20037;-52
2021/04/30 14:28:29;;;;;;;11.63;6.13;;;;;;;;;;5040035;28;20041;-56
2021/04/30 14:30:54;;;;;;;11.68;6.13;;;;;;;;;;5038215;28;20033;-57